Time;durP1;ratioP1;P1;durP2;ratioP2;P2;SDS_P1;SDS_P2;PMS_P1;PMS_P2;Temp;Humidity;BMP_temperature;BMP_pressure;BME280_temperature;BME280_humidity;BME280_pressure;Samples;Min_cycle;Max_cycle;Signal;HPM_P1;HPM_P2
2023/07/13 00:00:34;;;;;;;1.90;1.50;;;22.10;99.70;;;;;;5021560;28;20574;-82
2023/07/13 00:02:59;;;;;;;1.37;1.27;;;22.10;99.30;;;;;;5020630;28;20177;-78
2023/07/13 00:05:26;;;;;;;3.07;1.20;;;22.30;99.20;;;;;;5021886;28;20176;-79
2023/07/13 00:07:52;;;;;;;1.27;1.20;;;22.20;99.00;;;;;;5024526;28;20264;-77
2023/07/13 00:10:18;;;;;;;1.70;1.00;;;22.10;98.50;;;;;;5005938;28;20177;-76
2023/07/13 00:12:44;;;;;;;0.87;0.80;;;22.10;98.60;;;;;;5022502;28;20177;-79
2023/07/13 00:15:16;;;;;;;1.33;1.00;;;22.00;98.80;;;;;;5039529;28;20201;-81
2023/07/13 00:17:44;;;;;;;1.00;1.00;;;21.80;99.20;;;;;;5025026;28;20160;-79
2023/07/13 00:20:11;;;;;;;1.73;1.03;;;21.70;99.40;;;;;;5002545;28;20229;-78
2023/07/13 00:22:37;;;;;;;1.03;1.00;;;21.70;99.60;;;;;;5018776;28;20165;-79
2023/07/13 00:25:03;;;;;;;0.83;0.83;;;21.60;99.70;;;;;;5019342;28;20177;-78
2023/07/13 00:27:31;;;;;;;2.20;1.00;;;21.60;99.80;;;;;;5018768;28;20233;-78
2023/07/13 00:29:59;;;;;;;1.07;1.07;;;21.60;99.90;;;;;;5019964;28;20165;-78
2023/07/13 00:32:25;;;;;;;1.07;1.07;;;21.50;99.90;;;;;;5019333;28;20177;-79
2023/07/13 00:34:51;;;;;;;1.10;1.00;;;21.40;99.90;;;;;;5019411;28;20209;-77
2023/07/13 00:37:17;;;;;;;1.33;1.10;;;21.30;99.90;;;;;;5019023;28;20169;-78
2023/07/13 00:39:43;;;;;;;0.83;0.83;;;21.40;99.90;;;;;;5021603;28;20227;-80
2023/07/13 00:42:09;;;;;;;1.10;1.10;;;21.30;99.90;;;;;;5020838;28;20183;-81
2023/07/13 00:44:35;;;;;;;1.00;1.00;;;21.30;99.90;;;;;;5023390;28;20185;-79
2023/07/13 00:47:01;;;;;;;0.87;0.87;;;21.30;99.90;;;;;;5027003;28;20223;-78
2023/07/13 00:49:30;;;;;;;1.37;0.97;;;21.20;99.90;;;;;;5017472;28;20184;-81
2023/07/13 00:52:07;;;;;;;1.00;1.00;;;21.30;99.90;;;;;;5033572;28;20204;-80
2023/07/13 00:54:44;;;;;;;0.90;0.90;;;21.20;99.90;;;;;;5030115;28;20208;-80
2023/07/13 00:57:14;;;;;;;0.93;0.93;;;21.20;99.90;;;;;;5031417;28;20200;-79
2023/07/13 00:59:43;;;;;;;1.67;0.90;;;21.10;99.90;;;;;;5026002;28;20176;-79
2023/07/13 01:02:10;;;;;;;1.17;1.17;;;21.00;99.90;;;;;;5023519;28;20184;-80
2023/07/13 01:04:35;;;;;;;0.97;0.97;;;21.10;99.90;;;;;;5001701;28;20185;-80
2023/07/13 01:07:01;;;;;;;1.03;1.00;;;21.10;99.90;;;;;;5019289;28;20200;-79
2023/07/13 01:09:27;;;;;;;1.47;1.07;;;21.10;99.90;;;;;;5018815;28;20655;-78
2023/07/13 01:11:53;;;;;;;1.17;1.07;;;21.10;99.90;;;;;;5001387;28;20180;-78
2023/07/13 01:14:19;;;;;;;2.60;1.20;;;21.10;99.90;;;;;;5025748;28;20393;-79
2023/07/13 01:16:49;;;;;;;1.20;1.20;;;21.00;99.90;;;;;;5025540;28;20173;-79
2023/07/13 01:19:37;;;;;;;1.07;1.07;;;20.90;99.90;;;;;;5018329;28;20177;-77
2023/07/13 01:22:11;;;;;;;1.60;1.00;;;20.90;99.90;;;;;;5018170;28;20149;-78
2023/07/13 01:24:38;;;;;;;1.10;1.10;;;21.00;99.90;;;;;;5018513;28;20168;-79
2023/07/13 01:27:06;;;;;;;1.33;1.23;;;21.00;99.90;;;;;;5018347;28;20177;-80
2023/07/13 01:29:34;;;;;;;1.60;1.50;;;21.00;99.90;;;;;;5020121;28;20169;-78
2023/07/13 01:32:00;;;;;;;1.20;1.20;;;21.00;99.90;;;;;;5029882;28;20614;-77
2023/07/13 01:34:27;;;;;;;1.30;1.30;;;20.90;99.90;;;;;;5018431;28;20220;-77
2023/07/13 01:36:56;;;;;;;1.67;1.50;;;20.80;99.90;;;;;;5017744;28;20170;-79
2023/07/13 01:39:22;;;;;;;1.30;1.30;;;20.90;99.90;;;;;;5017687;28;20173;-78
2023/07/13 01:41:48;;;;;;;1.67;1.57;;;20.80;99.90;;;;;;5017641;28;20218;-79
2023/07/13 01:44:14;;;;;;;1.77;1.67;;;20.70;99.90;;;;;;5000131;28;20180;-78
2023/07/13 01:46:40;;;;;;;5.20;2.07;;;20.50;99.90;;;;;;5017806;28;20193;-78
2023/07/13 01:49:06;;;;;;;1.83;1.70;;;20.40;99.90;;;;;;5017572;28;20185;-78
2023/07/13 01:51:31;;;;;;;2.07;1.87;;;20.10;99.90;;;;;;5017535;28;20181;-79
2023/07/13 01:53:57;;;;;;;3.33;2.00;;;20.00;99.90;;;;;;5017396;28;20351;-79
2023/07/13 01:56:24;;;;;;;1.83;1.70;;;20.00;99.90;;;;;;4997894;28;20181;-78
2023/07/13 01:58:50;;;;;;;2.07;1.80;;;20.00;99.90;;;;;;5016692;28;20181;-78
2023/07/13 02:01:15;;;;;;;4.17;2.00;;;19.90;99.90;;;;;;4999091;28;20181;-79
2023/07/13 02:03:41;;;;;;;1.80;1.70;;;19.90;99.90;;;;;;5016406;28;20170;-78
2023/07/13 02:06:07;;;;;;;2.90;1.80;;;19.70;99.90;;;;;;5016768;28;20223;-79
2023/07/13 02:08:33;;;;;;;1.80;1.70;;;19.60;99.90;;;;;;5016993;28;20554;-78
2023/07/13 02:10:59;;;;;;;2.37;2.17;;;19.60;99.90;;;;;;5016777;28;20595;-78
2023/07/13 02:13:25;;;;;;;1.70;1.70;;;19.60;99.90;;;;;;5016727;28;20192;-79
2023/07/13 02:15:51;;;;;;;1.67;1.63;;;19.60;99.90;;;;;;5006794;28;20181;-78
2023/07/13 02:18:17;;;;;;;2.00;1.90;;;19.50;99.90;;;;;;5026886;28;20174;-77
2023/07/13 02:20:44;;;;;;;1.53;1.43;;;19.50;99.90;;;;;;5022881;28;20229;-80
2023/07/13 02:23:10;;;;;;;1.60;1.60;;;19.60;99.90;;;;;;5003051;28;20565;-79
2023/07/13 02:25:36;;;;;;;1.40;1.33;;;19.60;99.90;;;;;;5000606;28;20688;-78
2023/07/13 02:28:03;;;;;;;1.40;1.40;;;19.70;99.90;;;;;;5023095;28;20204;-77
2023/07/13 02:30:29;;;;;;;1.50;1.40;;;19.70;99.90;;;;;;5009416;28;20181;-77
2023/07/13 02:32:56;;;;;;;2.47;1.80;;;19.80;99.90;;;;;;5022006;28;20173;-78
2023/07/13 02:35:22;;;;;;;2.60;1.77;;;19.80;99.90;;;;;;5020189;28;20180;-82
2023/07/13 02:37:48;;;;;;;1.77;1.67;;;19.80;99.90;;;;;;5001199;28;20169;-78
2023/07/13 02:40:14;;;;;;;2.23;1.83;;;19.70;99.90;;;;;;4999545;28;20645;-79
2023/07/13 02:42:40;;;;;;;1.70;1.60;;;19.50;99.90;;;;;;5017616;28;20636;-79
2023/07/13 02:45:07;;;;;;;2.10;1.73;;;19.30;99.90;;;;;;4996737;28;20180;-80
2023/07/13 02:47:33;;;;;;;1.97;1.87;;;19.20;99.90;;;;;;5016916;28;20187;-78
2023/07/13 02:49:59;;;;;;;1.77;1.77;;;19.20;99.90;;;;;;5000381;28;20272;-78
2023/07/13 02:52:25;;;;;;;2.10;2.00;;;19.00;99.90;;;;;;5020274;28;20177;-78
2023/07/13 02:54:51;;;;;;;2.23;2.13;;;18.90;99.90;;;;;;5024491;28;20209;-80
2023/07/13 02:57:16;;;;;;;2.03;1.93;;;18.90;99.90;;;;;;5018282;28;20180;-78
2023/07/13 02:59:42;;;;;;;2.10;2.00;;;18.90;99.90;;;;;;5018012;28;20174;-78
2023/07/13 03:02:09;;;;;;;2.07;1.90;;;19.00;99.90;;;;;;5017547;28;20200;-80
2023/07/13 03:04:36;;;;;;;2.27;2.13;;;19.00;99.90;;;;;;5017362;28;20181;-80
2023/07/13 03:07:03;;;;;;;2.30;2.20;;;19.00;99.90;;;;;;5018896;28;20651;-77
2023/07/13 03:09:30;;;;;;;3.60;2.63;;;19.00;99.90;;;;;;5021225;28;20248;-77
2023/07/13 03:11:56;;;;;;;2.47;2.37;;;19.00;99.90;;;;;;5020791;28;20165;-80
2023/07/13 03:14:23;;;;;;;2.70;2.60;;;19.10;99.90;;;;;;5003284;28;20637;-79
2023/07/13 03:16:49;;;;;;;2.17;1.97;;;19.20;99.90;;;;;;5020413;28;20165;-77
2023/07/13 03:19:15;;;;;;;2.80;2.60;;;19.20;99.90;;;;;;5003068;28;20177;-78
2023/07/13 03:21:41;;;;;;;2.47;2.37;;;19.20;99.90;;;;;;5023734;28;20169;-78
2023/07/13 03:24:07;;;;;;;2.40;2.30;;;19.30;99.90;;;;;;5014173;28;20545;-77
2023/07/13 03:26:32;;;;;;;2.30;2.20;;;19.30;99.90;;;;;;5026312;28;20212;-77
2023/07/13 03:28:58;;;;;;;2.07;1.87;;;19.30;99.90;;;;;;5020058;28;20532;-80
2023/07/13 03:31:30;;;;;;;2.53;2.33;;;19.30;99.90;;;;;;5020485;28;20177;-77
2023/07/13 03:33:58;;;;;;;2.13;2.03;;;19.30;99.90;;;;;;5021903;28;20219;-77
2023/07/13 03:36:28;;;;;;;2.30;2.00;;;19.30;99.90;;;;;;5020498;28;20169;-78
2023/07/13 03:38:56;;;;;;;2.20;1.77;;;19.30;99.90;;;;;;5020636;28;20609;-77
2023/07/13 03:41:24;;;;;;;2.03;1.93;;;19.40;99.90;;;;;;5020736;28;20192;-77
2023/07/13 03:43:51;;;;;;;3.23;3.03;;;19.40;99.90;;;;;;5005440;28;20181;-80
2023/07/13 03:46:18;;;;;;;2.07;1.97;;;19.40;99.90;;;;;;5020732;28;20179;-79
2023/07/13 03:48:46;;;;;;;1.97;1.87;;;19.40;99.90;;;;;;5020038;28;20252;-79
2023/07/13 03:51:14;;;;;;;2.10;2.00;;;19.40;99.90;;;;;;5002554;28;20181;-78
2023/07/13 03:53:44;;;;;;;2.23;2.13;;;19.30;99.90;;;;;;5021120;28;20632;-79
2023/07/13 03:56:10;;;;;;;2.73;2.23;;;19.10;99.90;;;;;;5034254;28;20260;-79
2023/07/13 03:58:39;;;;;;;2.97;2.30;;;19.00;99.90;;;;;;5021039;28;20175;-78
2023/07/13 04:01:07;;;;;;;2.70;2.43;;;19.00;99.90;;;;;;5002429;28;20181;-78
2023/07/13 04:03:34;;;;;;;3.33;2.00;;;19.10;99.90;;;;;;5019976;28;20180;-78
2023/07/13 04:06:02;;;;;;;2.90;2.10;;;19.20;99.90;;;;;;5027170;28;20177;-78
2023/07/13 04:08:29;;;;;;;2.70;2.50;;;19.30;99.90;;;;;;5032099;28;20177;-80
2023/07/13 04:10:57;;;;;;;2.20;2.10;;;19.20;99.90;;;;;;5002988;28;20181;-77
2023/07/13 04:13:23;;;;;;;2.47;2.27;;;19.10;99.90;;;;;;5019865;28;20204;-79
2023/07/13 04:15:50;;;;;;;2.30;2.20;;;19.10;99.90;;;;;;5002312;28;20204;-78
2023/07/13 04:18:15;;;;;;;2.47;2.30;;;19.00;99.90;;;;;;5019272;28;20177;-78
2023/07/13 04:20:41;;;;;;;2.43;2.23;;;19.20;99.90;;;;;;5019739;28;20227;-79
2023/07/13 04:23:07;;;;;;;2.30;2.10;;;19.20;99.90;;;;;;5020404;28;20180;-79
2023/07/13 04:25:33;;;;;;;2.33;2.20;;;19.20;99.90;;;;;;5006006;28;20199;-78
2023/07/13 04:27:59;;;;;;;2.20;2.10;;;19.10;99.90;;;;;;5022734;28;20177;-79
2023/07/13 04:30:26;;;;;;;2.93;2.20;;;19.00;99.90;;;;;;5020832;28;20227;-77
2023/07/13 04:32:53;;;;;;;4.50;2.37;;;19.00;99.90;;;;;;5020731;28;20201;-77
2023/07/13 04:35:20;;;;;;;2.53;2.13;;;19.00;99.90;;;;;;5004480;28;20213;-78
2023/07/13 04:37:50;;;;;;;2.33;2.13;;;18.90;99.90;;;;;;5024041;28;20176;-78
2023/07/13 04:40:19;;;;;;;2.03;1.93;;;18.90;99.90;;;;;;5024991;28;20173;-80
2023/07/13 04:42:46;;;;;;;3.53;2.10;;;18.90;99.90;;;;;;5025031;28;20199;-78
2023/07/13 04:45:14;;;;;;;2.57;2.10;;;19.00;99.90;;;;;;5024421;28;20258;-77
2023/07/13 04:47:41;;;;;;;2.20;2.00;;;19.00;99.90;;;;;;5014834;28;20177;-79
2023/07/13 04:50:09;;;;;;;2.20;2.10;;;19.00;99.90;;;;;;5037947;28;20162;-78
2023/07/13 04:52:36;;;;;;;1.87;1.77;;;19.20;99.90;;;;;;5023063;28;20268;-79
2023/07/13 04:55:02;;;;;;;2.53;2.33;;;19.20;99.90;;;;;;5020912;28;20236;-79
2023/07/13 04:57:28;;;;;;;2.30;2.10;;;19.40;99.90;;;;;;5020272;28;20165;-79
2023/07/13 04:59:54;;;;;;;2.23;1.83;;;19.40;99.90;;;;;;5002538;28;20187;-76
2023/07/13 05:02:23;;;;;;;2.53;1.70;;;19.30;99.90;;;;;;5020416;28;20240;-78
2023/07/13 05:04:48;;;;;;;1.80;1.70;;;19.40;99.90;;;;;;5021808;28;20177;-77
2023/07/13 05:07:14;;;;;;;1.67;1.67;;;19.50;99.90;;;;;;5023520;28;20184;-78
2023/07/13 05:09:40;;;;;;;2.97;1.70;;;19.50;99.90;;;;;;5017079;28;20199;-77
2023/07/13 05:12:09;;;;;;;1.90;1.80;;;19.50;99.90;;;;;;5013099;28;20183;-79
2023/07/13 05:14:34;;;;;;;3.33;2.10;;;19.50;99.90;;;;;;5037617;28;20201;-79
2023/07/13 05:17:01;;;;;;;4.90;2.40;;;19.50;99.90;;;;;;5015860;28;20188;-77
2023/07/13 05:19:28;;;;;;;2.00;1.87;;;19.60;99.90;;;;;;5017176;28;20233;-78
2023/07/13 05:21:53;;;;;;;1.87;1.77;;;19.70;99.90;;;;;;5024500;28;20170;-78
2023/07/13 05:24:19;;;;;;;2.90;1.80;;;19.80;99.90;;;;;;5022348;28;20185;-78
2023/07/13 05:26:45;;;;;;;2.03;1.93;;;19.90;99.90;;;;;;5021297;28;20170;-78
2023/07/13 05:29:11;;;;;;;2.03;1.93;;;20.00;99.90;;;;;;5001883;28;20189;-77
2023/07/13 05:31:37;;;;;;;1.90;1.80;;;20.00;99.90;;;;;;5016970;28;20173;-79
2023/07/13 05:34:03;;;;;;;2.40;2.20;;;19.90;99.90;;;;;;5014501;28;20263;-78
2023/07/13 05:36:28;;;;;;;1.67;1.67;;;19.90;99.90;;;;;;5004491;28;20272;-78
2023/07/13 05:38:54;;;;;;;2.00;1.90;;;20.00;99.90;;;;;;5019405;28;20264;-78
2023/07/13 05:41:20;;;;;;;1.80;1.70;;;20.10;99.90;;;;;;5018696;28;20177;-77
2023/07/13 05:43:46;;;;;;;2.10;1.87;;;20.20;99.90;;;;;;5018231;28;20188;-78
2023/07/13 05:46:11;;;;;;;1.80;1.80;;;20.30;99.90;;;;;;5025874;28;20590;-77
2023/07/13 05:48:37;;;;;;;2.50;1.67;;;20.40;99.90;;;;;;5018785;28;20173;-78
2023/07/13 05:51:15;;;;;;;2.87;1.70;;;20.50;99.90;;;;;;5116729;27;20550;-77
2023/07/13 05:53:40;;;;;;;1.73;1.63;;;20.70;99.90;;;;;;5097441;28;20189;-78
2023/07/13 05:56:06;;;;;;;1.80;1.70;;;20.60;99.90;;;;;;5116235;28;20176;-76
2023/07/13 05:58:32;;;;;;;1.70;1.60;;;20.60;99.90;;;;;;5115879;28;20303;-78
2023/07/13 06:01:07;;;;;;;1.90;1.53;;;20.70;99.90;;;;;;5114941;28;20178;-78
2023/07/13 06:03:33;;;;;;;1.53;1.50;;;20.60;99.90;;;;;;5115407;28;20218;-79
2023/07/13 06:06:02;;;;;;;1.20;1.20;;;20.60;99.90;;;;;;5115642;28;20205;-76
2023/07/13 06:08:29;;;;;;;1.87;1.77;;;20.60;99.90;;;;;;5118190;28;20166;-76
2023/07/13 06:11:01;;;;;;;2.90;1.47;;;20.50;99.90;;;;;;5126950;28;20206;-77
2023/07/13 06:13:26;;;;;;;1.33;1.33;;;20.60;99.90;;;;;;5117390;28;20191;-77
2023/07/13 06:15:52;;;;;;;1.70;1.60;;;20.70;99.90;;;;;;5115605;28;20186;-76
2023/07/13 06:18:18;;;;;;;1.90;1.73;;;20.80;99.90;;;;;;5115293;28;20621;-79
2023/07/13 06:20:43;;;;;;;1.60;1.50;;;20.90;99.90;;;;;;5114743;28;20180;-78
2023/07/13 06:23:09;;;;;;;1.40;1.40;;;20.90;99.90;;;;;;5114560;28;20174;-77
2023/07/13 06:25:35;;;;;;;1.33;1.33;;;20.90;99.90;;;;;;5115049;28;20536;-77
2023/07/13 06:28:02;;;;;;;1.80;1.40;;;20.90;99.90;;;;;;5126367;28;20170;-77
2023/07/13 06:30:28;;;;;;;1.93;1.43;;;20.90;99.90;;;;;;5117933;28;20201;-76
2023/07/13 06:32:53;;;;;;;2.07;1.70;;;21.10;99.90;;;;;;5113129;28;20181;-74
2023/07/13 06:35:19;;;;;;;1.50;1.40;;;21.20;99.90;;;;;;5114315;28;20189;-77
2023/07/13 06:37:45;;;;;;;1.97;1.50;;;21.30;99.90;;;;;;5113930;28;20169;-79
2023/07/13 06:40:11;;;;;;;1.40;1.30;;;21.40;99.90;;;;;;5111581;28;20209;-76
2023/07/13 06:42:38;;;;;;;3.70;1.47;;;21.50;99.90;;;;;;5111129;28;20538;-77
2023/07/13 06:45:04;;;;;;;2.50;2.10;;;21.60;99.90;;;;;;5111296;28;20572;-76
2023/07/13 06:47:30;;;;;;;1.70;1.60;;;21.70;99.90;;;;;;5112172;28;20178;-77
2023/07/13 06:49:56;;;;;;;2.50;1.60;;;21.70;99.90;;;;;;5133887;28;20220;-75
2023/07/13 06:52:21;;;;;;;2.30;1.70;;;21.70;99.90;;;;;;5134121;28;20170;-76
2023/07/13 06:54:47;;;;;;;1.60;1.50;;;21.80;99.90;;;;;;5116762;28;20621;-77
2023/07/13 06:57:13;;;;;;;1.50;1.40;;;21.80;99.90;;;;;;5114927;28;20185;-78
2023/07/13 06:59:39;;;;;;;1.90;1.20;;;21.70;99.90;;;;;;5114602;28;20211;-76
2023/07/13 07:02:05;;;;;;;1.50;1.50;;;21.60;99.90;;;;;;5106958;28;20179;-77
2023/07/13 07:04:30;;;;;;;1.53;1.50;;;21.70;99.90;;;;;;5116418;28;20189;-77
2023/07/13 07:06:56;;;;;;;1.67;1.57;;;21.70;99.90;;;;;;5120760;28;20162;-78
2023/07/13 07:09:22;;;;;;;1.53;1.43;;;21.80;99.90;;;;;;5102915;28;20217;-76
2023/07/13 07:11:48;;;;;;;1.50;1.40;;;21.90;99.90;;;;;;5106741;28;20201;-78
2023/07/13 07:14:13;;;;;;;1.20;1.20;;;21.90;99.90;;;;;;5101508;28;20177;-76
2023/07/13 07:16:39;;;;;;;1.63;1.53;;;21.90;99.90;;;;;;5097177;28;20174;-76
2023/07/13 07:19:05;;;;;;;1.20;1.20;;;22.00;99.90;;;;;;5097669;28;20182;-77
2023/07/13 07:21:31;;;;;;;1.20;1.20;;;22.10;99.90;;;;;;5098846;28;20173;-78
2023/07/13 07:23:57;;;;;;;1.03;0.90;;;22.30;99.90;;;;;;5111486;28;20245;-78
2023/07/13 07:26:23;;;;;;;5.23;1.20;;;22.30;99.90;;;;;;5108354;28;20179;-76
2023/07/13 07:28:48;;;;;;;1.00;1.00;;;22.50;99.90;;;;;;5096283;28;20185;-76
2023/07/13 07:31:14;;;;;;;1.27;1.17;;;22.60;99.90;;;;;;5095579;28;20201;-77
2023/07/13 07:33:40;;;;;;;1.70;1.10;;;22.70;99.90;;;;;;5096502;28;20723;-77
2023/07/13 07:36:06;;;;;;;1.90;1.10;;;22.90;99.90;;;;;;5096336;28;20213;-76
2023/07/13 07:38:31;;;;;;;1.52;1.42;;;23.00;99.90;;;;;;5096619;28;20177;-77
2023/07/13 07:40:57;;;;;;;1.67;1.10;;;23.10;99.90;;;;;;5096254;28;20609;-78
2023/07/13 07:43:23;;;;;;;1.20;1.07;;;23.10;99.90;;;;;;5095656;28;20621;-76
2023/07/13 07:45:49;;;;;;;1.00;1.00;;;23.10;99.90;;;;;;5097605;28;20253;-77
2023/07/13 07:48:14;;;;;;;1.27;1.00;;;23.30;99.90;;;;;;5110545;28;20200;-78
2023/07/13 07:50:40;;;;;;;0.90;0.90;;;23.30;99.90;;;;;;5105225;28;20691;-77
2023/07/13 07:53:07;;;;;;;2.10;1.03;;;23.50;99.90;;;;;;5096520;28;20181;-75
2023/07/13 07:55:37;;;;;;;1.15;1.00;;;23.60;99.90;;;;;;5096454;28;20663;-79
2023/07/13 07:58:03;;;;;;;1.05;1.05;;;23.70;99.90;;;;;;5096545;28;20171;-77
2023/07/13 08:00:32;;;;;;;1.20;1.15;;;23.80;99.90;;;;;;5094878;28;20287;-77
2023/07/13 08:02:58;;;;;;;1.05;1.05;;;23.80;99.90;;;;;;5095975;28;20174;-78
2023/07/13 08:05:25;;;;;;;1.00;1.00;;;23.80;99.90;;;;;;5097215;28;20167;-76
2023/07/13 08:07:51;;;;;;;1.17;1.00;;;23.80;99.90;;;;;;5096838;28;20573;-78
2023/07/13 08:10:18;;;;;;;1.05;1.02;;;23.90;99.90;;;;;;5096125;28;20245;-76
2023/07/13 08:12:44;;;;;;;1.20;1.20;;;24.00;99.90;;;;;;5095843;28;20175;-77
2023/07/13 08:15:13;;;;;;;1.17;1.17;;;23.90;99.90;;;;;;5096741;28;20709;-77
2023/07/13 08:17:39;;;;;;;0.80;0.80;;;23.90;99.90;;;;;;5095271;28;20174;-78
2023/07/13 08:20:05;;;;;;;1.50;1.25;;;24.00;99.90;;;;;;5095828;28;20556;-77
2023/07/13 08:22:31;;;;;;;1.80;1.10;;;24.20;99.90;;;;;;5095860;28;20166;-77
2023/07/13 08:24:57;;;;;;;1.08;1.00;;;24.20;99.90;;;;;;5096264;28;20630;-79
2023/07/13 08:27:25;;;;;;;1.13;0.90;;;24.30;99.90;;;;;;5094823;28;20185;-78
2023/07/13 08:29:51;;;;;;;1.10;1.00;;;24.40;99.90;;;;;;5100974;28;20198;-76
2023/07/13 08:32:18;;;;;;;0.90;0.90;;;24.40;99.90;;;;;;5101056;28;20221;-77
2023/07/13 08:34:44;;;;;;;1.00;1.00;;;24.50;99.90;;;;;;5096733;28;20170;-77
2023/07/13 08:37:10;;;;;;;1.40;1.30;;;24.60;99.90;;;;;;5094951;28;20586;-78
2023/07/13 08:39:36;;;;;;;0.73;0.73;;;24.80;99.90;;;;;;5095731;28;20210;-78
2023/07/13 08:42:36;;;;;;;1.52;1.02;;;24.80;99.90;;;;;;5095526;28;20174;-78
2023/07/13 08:45:24;;;;;;;0.73;0.73;;;24.90;99.90;;;;;;5096020;28;20162;-77
2023/07/13 08:47:54;;;;;;;1.10;1.10;;;24.90;99.90;;;;;;5095754;28;20205;-78
2023/07/13 08:50:26;;;;;;;0.77;0.77;;;25.00;99.90;;;;;;5099674;28;20639;-78
2023/07/13 08:52:55;;;;;;;0.93;0.93;;;25.10;99.60;;;;;;5112348;28;20158;-79
2023/07/13 08:55:28;;;;;;;0.80;0.80;;;25.10;99.70;;;;;;5095721;28;20174;-78
2023/07/13 08:58:01;;;;;;;0.85;0.70;;;25.30;98.40;;;;;;5103165;28;20155;-79
2023/07/13 09:00:58;;;;;;;0.70;0.70;;;25.40;97.30;;;;;;5107050;28;20615;-77
2023/07/13 09:03:29;;;;;;;0.80;0.80;;;25.40;97.60;;;;;;5098871;28;20182;-77
2023/07/13 09:06:00;;;;;;;1.00;1.00;;;25.30;97.50;;;;;;5097532;28;20154;-78
2023/07/13 09:09:14;;;;;;;0.75;0.75;;;25.40;98.20;;;;;;5095033;28;20170;-77
2023/07/13 09:11:43;;;;;;;0.90;0.90;;;25.60;97.90;;;;;;5084913;28;20205;-78
2023/07/13 09:14:35;;;;;;;0.98;0.98;;;25.70;96.50;;;;;;5105635;28;20177;-77
2023/07/13 09:17:12;;;;;;;0.82;0.82;;;25.80;96.40;;;;;;5097197;28;20162;-79
2023/07/13 09:19:40;;;;;;;0.98;0.98;;;25.80;96.40;;;;;;5098166;28;20162;-78
2023/07/13 09:22:13;;;;;;;0.90;0.90;;;25.80;96.50;;;;;;5103513;28;20147;-77
2023/07/13 09:24:58;;;;;;;1.25;1.25;;;25.90;96.10;;;;;;5116583;28;20185;-77
2023/07/13 09:27:31;;;;;;;1.00;1.00;;;25.80;95.70;;;;;;5097454;28;20529;-79
2023/07/13 09:30:15;;;;;;;0.77;0.77;;;25.90;96.00;;;;;;5093276;28;20219;-79
2023/07/13 09:32:51;;;;;;;0.85;0.85;;;26.00;95.50;;;;;;5094190;28;20174;-76
2023/07/13 09:35:22;;;;;;;0.80;0.80;;;26.20;95.00;;;;;;5093858;28;20174;-79
2023/07/13 09:37:49;;;;;;;0.93;0.93;;;26.40;94.70;;;;;;5094365;28;20261;-76
2023/07/13 09:40:39;;;;;;;0.88;0.88;;;26.50;95.30;;;;;;5095091;28;20988;-77
2023/07/13 09:43:07;;;;;;;1.00;1.00;;;26.60;95.20;;;;;;5094775;28;20209;-77
2023/07/13 09:45:34;;;;;;;0.93;0.93;;;26.60;94.40;;;;;;5097659;28;20166;-77
2023/07/13 09:48:10;;;;;;;0.80;0.80;;;26.60;94.10;;;;;;5095529;28;20189;-78
2023/07/13 09:50:36;;;;;;;1.30;1.20;;;26.50;94.20;;;;;;5095550;28;20265;-77
2023/07/13 09:53:03;;;;;;;1.77;1.30;;;26.60;94.30;;;;;;5094783;28;20163;-77
2023/07/13 09:55:39;;;;;;;0.93;0.93;;;26.70;94.90;;;;;;5092951;28;20182;-78
2023/07/13 09:58:19;;;;;;;0.95;0.95;;;26.70;94.60;;;;;;5093904;28;20204;-76
2023/07/13 10:00:57;;;;;;;1.00;1.00;;;26.80;94.20;;;;;;5094262;28;20155;-79
2023/07/13 10:03:28;;;;;;;1.17;0.90;;;26.70;94.50;;;;;;5093842;28;20155;-78
2023/07/13 10:05:54;;;;;;;0.93;0.93;;;26.90;94.30;;;;;;5094545;28;20162;-77
2023/07/13 10:08:32;;;;;;;1.08;1.08;;;26.90;93.90;;;;;;5094075;28;20173;-77
2023/07/13 10:11:09;;;;;;;1.02;1.02;;;27.00;94.00;;;;;;5093643;28;20672;-78
2023/07/13 10:13:42;;;;;;;0.85;0.85;;;26.90;94.20;;;;;;5094139;28;20677;-78
2023/07/13 10:16:09;;;;;;;1.13;1.13;;;27.10;93.80;;;;;;5095673;28;20173;-79
2023/07/13 10:18:50;;;;;;;1.27;1.27;;;27.10;93.40;;;;;;5094999;28;20534;-79
2023/07/13 10:21:21;;;;;;;0.95;0.95;;;27.30;93.80;;;;;;5093077;28;20171;-77
2023/07/13 10:23:59;;;;;;;1.30;1.30;;;27.30;93.40;;;;;;5102501;28;20155;-78
2023/07/13 10:26:30;;;;;;;1.15;1.15;;;27.30;93.00;;;;;;5096478;28;20250;-78
2023/07/13 10:29:00;;;;;;;0.85;0.85;;;27.30;92.30;;;;;;5095161;28;20580;-76
2023/07/13 10:31:26;;;;;;;1.60;1.10;;;27.40;92.70;;;;;;5109429;28;20159;-79
2023/07/13 10:33:52;;;;;;;0.90;0.90;;;27.50;92.90;;;;;;5097181;28;20175;-78
2023/07/13 10:36:24;;;;;;;1.10;1.10;;;27.40;92.20;;;;;;5096187;28;20223;-76
2023/07/13 10:38:52;;;;;;;0.85;0.85;;;27.50;92.50;;;;;;5098549;28;20645;-77
2023/07/13 10:41:22;;;;;;;1.30;1.30;;;27.70;92.20;;;;;;5105204;28;20151;-79
2023/07/13 10:43:51;;;;;;;1.00;1.00;;;28.00;91.70;;;;;;5111405;28;20173;-78
2023/07/13 10:46:22;;;;;;;1.20;1.10;;;28.20;91.70;;;;;;5097726;28;20167;-79
2023/07/13 10:48:54;;;;;;;1.10;1.10;;;28.40;91.80;;;;;;5098325;28;20180;-76
2023/07/13 10:51:21;;;;;;;1.13;1.13;;;28.30;92.20;;;;;;5114712;28;20222;-77
2023/07/13 10:53:47;;;;;;;1.38;1.23;;;28.10;92.20;;;;;;5102842;28;20622;-77
2023/07/13 10:56:27;;;;;;;1.13;1.02;;;28.00;92.10;;;;;;5098152;28;20219;-77
2023/07/13 10:59:15;;;;;;;1.60;1.10;;;28.00;91.90;;;;;;5098852;28;20166;-79
2023/07/13 11:01:55;;;;;;;0.95;0.95;;;28.00;92.20;;;;;;5097377;28;20519;-76
2023/07/13 11:04:23;;;;;;;1.27;1.08;;;28.00;91.60;;;;;;5097440;28;20548;-77
2023/07/13 11:06:55;;;;;;;0.85;0.85;;;28.00;92.10;;;;;;5096005;28;20179;-78
2023/07/13 11:09:49;;;;;;;1.42;1.05;;;28.00;91.20;;;;;;5096781;28;20198;-76
2023/07/13 11:12:17;;;;;;;1.50;1.40;;;28.20;91.10;;;;;;5090501;28;20231;-78
2023/07/13 11:14:55;;;;;;;2.35;1.23;;;28.30;91.20;;;;;;5096578;28;20170;-77
2023/07/13 11:17:31;;;;;;;1.50;1.40;;;28.40;91.40;;;;;;5096644;28;20530;-77
2023/07/13 11:20:16;;;;;;;1.15;1.15;;;28.50;91.20;;;;;;5096336;28;20170;-75
2023/07/13 11:23:06;;;;;;;1.13;1.13;;;28.60;91.00;;;;;;5085596;28;20194;-77
2023/07/13 11:25:34;;;;;;;0.90;0.90;;;28.80;92.40;;;;;;5097830;28;20163;-78
2023/07/13 11:28:06;;;;;;;1.10;1.10;;;28.90;91.90;;;;;;5097933;28;20206;-77
2023/07/13 11:30:52;;;;;;;2.60;1.20;;;29.10;92.90;;;;;;5097680;28;20198;-80
2023/07/13 11:33:26;;;;;;;0.90;0.90;;;29.10;92.70;;;;;;5097392;28;20159;-79
2023/07/13 11:36:03;;;;;;;1.10;1.10;;;29.20;92.50;;;;;;5097275;28;20158;-78
2023/07/13 11:38:41;;;;;;;1.30;1.30;;;29.00;90.80;;;;;;5097517;28;20359;-77
2023/07/13 11:41:30;;;;;;;0.93;0.93;;;28.90;91.20;;;;;;5113311;28;20241;-77
2023/07/13 11:44:11;;;;;;;1.30;1.30;;;28.90;92.10;;;;;;5105130;28;20162;-79
2023/07/13 11:46:36;;;;;;;1.10;1.10;;;28.70;92.90;;;;;;5098872;28;20155;-77
2023/07/13 11:49:07;;;;;;;1.30;1.25;;;28.60;92.70;;;;;;5097172;28;20544;-76
2023/07/13 11:51:36;;;;;;;1.63;1.55;;;28.30;94.50;;;;;;5095518;28;20228;-76
2023/07/13 11:54:26;;;;;;;1.40;1.40;;;28.20;94.60;;;;;;5095000;28;20174;-76
2023/07/13 11:56:52;;;;;;;1.20;1.20;;;28.30;95.60;;;;;;5096100;28;20217;-75
2023/07/13 11:59:19;;;;;;;1.30;1.30;;;28.30;95.40;;;;;;5096152;28;20174;-75
2023/07/13 12:01:54;;;;;;;1.00;1.00;;;28.20;95.50;;;;;;5096295;28;20175;-75
2023/07/13 12:04:27;;;;;;;1.13;1.13;;;28.10;96.30;;;;;;5095889;28;20165;-77
2023/07/13 12:07:03;;;;;;;1.42;1.42;;;28.00;97.00;;;;;;5097149;28;20163;-77
2023/07/13 12:09:29;;;;;;;1.10;1.10;;;27.90;97.30;;;;;;5097482;28;20210;-77
2023/07/13 12:11:57;;;;;;;1.67;1.42;;;28.00;98.00;;;;;;5098935;28;20510;-76
2023/07/13 12:14:24;;;;;;;1.52;1.42;;;28.10;97.50;;;;;;5095678;28;20170;-77
2023/07/13 12:16:50;;;;;;;1.42;1.42;;;28.10;98.10;;;;;;5095728;28;20185;-79
2023/07/13 12:19:22;;;;;;;1.13;1.13;;;28.10;98.30;;;;;;5096285;28;20716;-78
2023/07/13 12:21:50;;;;;;;1.45;1.35;;;28.10;98.40;;;;;;5101275;28;20175;-79
2023/07/13 12:24:22;;;;;;;1.27;1.27;;;28.20;98.50;;;;;;5096345;28;20162;-77
2023/07/13 12:26:59;;;;;;;1.52;1.52;;;28.30;98.80;;;;;;5107805;28;20186;-78
2023/07/13 12:29:25;;;;;;;3.40;1.42;;;28.40;98.50;;;;;;5110210;28;20194;-79
2023/07/13 12:31:52;;;;;;;1.50;1.40;;;28.40;99.10;;;;;;5100591;28;20170;-79
2023/07/13 12:34:22;;;;;;;2.80;1.27;;;28.40;98.70;;;;;;5105071;28;20690;-79
2023/07/13 12:37:02;;;;;;;1.45;1.42;;;28.30;99.20;;;;;;5113455;28;20194;-78
2023/07/13 12:39:37;;;;;;;1.35;1.35;;;28.00;99.90;;;;;;5104964;28;20170;-79
2023/07/13 12:42:31;;;;;;;1.40;1.30;;;27.70;99.90;;;;;;5102434;28;20178;-78
2023/07/13 12:45:09;;;;;;;1.55;1.52;;;27.60;99.90;;;;;;5105291;28;20245;-77
2023/07/13 12:47:42;;;;;;;1.50;1.50;;;27.70;99.90;;;;;;5117137;28;20177;-77
2023/07/13 12:50:18;;;;;;;1.42;1.42;;;27.50;99.90;;;;;;5100466;28;20224;-76
2023/07/13 12:52:44;;;;;;;1.73;1.67;;;27.20;99.90;;;;;;5100886;28;20226;-78
2023/07/13 12:55:21;;;;;;;1.70;1.58;;;26.80;99.90;;;;;;5102097;28;20199;-78
2023/07/13 12:57:53;;;;;;;1.50;1.40;;;26.60;99.90;;;;;;5098899;28;20173;-77